Terminal Aerodrome Forecast
Issued by NWS

Home | Current Version | Previous Version | Text Only | Print | Product List | Glossary Off
Versions: 1 2 3 4 5 6 7 8 9 10 11 12 13 14 15 16 17

000
FTUS43 KGRB 271700
TAFCWA
TAF
KCWA 271733Z 2718/2818 VRB03KT P6SM BKN035
     FM272200 VRB03KT P6SM SCT035 BKN100
     FM280000 VRB03KT P6SM SCT250
     FM280700 VRB03KT 6SM BR SCT250
      TEMPO 2808/2812 3SM BR
     FM281400 15006KT P6SM SCT060 BKN200=

USA.gov is the U.S. government's official web portal to all federal, state and local government web resources and services.